Time,TemperatureF,DewpointF,PressureIn,WindDirection,WindDirectionDegrees,WindSpeedMPH,WindSpeedGustMPH,Humidity,HourlyPrecipIn,Conditions,Clouds,dailyrainin,SoftwareType,DateUTC
2013-02-26 07:30:00,6.9,3.1,30.00,SSE,150,0.0,0.0,84,0.00,,,0.00,Wunderground v.1.15,2013-02-26 14:30:00,
2013-02-26 07:55:00,7.8,3.7,30.00,SSE,148,0.0,0.0,83,0.00,,,0.00,Wunderground v.1.15,2013-02-26 14:55:00,
2013-02-26 08:00:00,7.8,3.7,30.00,SSE,148,0.0,0.0,83,0.00,,,0.00,Wunderground v.1.15,2013-02-26 15:00:00,
2013-02-26 08:10:00,9.7,5.3,29.99,East,98,0.0,0.0,82,0.00,,,0.00,Wunderground v.1.15,2013-02-26 15:10:00,
2013-02-26 08:15:00,11.3,6.9,29.99,ESE,119,0.0,0.0,82,0.00,,,0.00,Wunderground v.1.15,2013-02-26 15:15:00,
2013-02-26 08:20:00,13.3,7.7,29.99,NNE,12,0.0,0.0,78,0.00,,,0.00,Wunderground v.1.15,2013-02-26 15:20:00,
2013-02-26 08:25:00,15.1,8.0,29.99,NE,38,0.0,0.0,73,0.00,,,0.00,Wunderground v.1.15,2013-02-26 15:25:00,
2013-02-26 08:30:00,16.9,9.4,29.99,NE,34,0.0,0.0,72,0.00,,,0.00,Wunderground v.1.15,2013-02-26 15:30:00,
2013-02-26 08:35:00,19.6,10.1,29.99,NNW,341,1.0,1.0,66,0.00,,,0.00,Wunderground v.1.15,2013-02-26 15:35:00,
2013-02-26 08:40:00,23.2,9.8,29.98,NNW,337,2.0,4.0,56,0.00,,,0.00,Wunderground v.1.15,2013-02-26 15:40:00,
2013-02-26 08:45:00,25.0,9.0,29.98,NW,307,4.0,4.0,50,0.00,,,0.00,Wunderground v.1.15,2013-02-26 15:45:00,
2013-02-26 08:55:00,26.2,8.2,29.98,West,278,4.0,6.0,46,0.00,,,0.00,Wunderground v.1.15,2013-02-26 15:55:00,
2013-02-26 09:00:00,26.5,8.0,29.97,NW,307,6.0,8.0,45,0.00,,,0.00,Wunderground v.1.15,2013-02-26 16:00:00,
2013-02-26 09:10:00,26.9,7.9,29.97,NNW,333,6.0,7.0,44,0.00,,,0.00,Wunderground v.1.15,2013-02-26 16:10:00,
2013-02-26 09:20:00,27.5,8.9,29.97,NW,316,7.0,7.0,45,0.00,,,0.00,Wunderground v.1.15,2013-02-26 16:20:00,
2013-02-26 09:25:00,27.7,8.6,29.97,NNW,342,7.0,11.0,44,0.00,,,0.00,Wunderground v.1.15,2013-02-26 16:25:00,
2013-02-26 09:30:00,27.8,8.7,29.97,NNW,333,7.0,7.0,44,0.00,,,0.00,Wunderground v.1.15,2013-02-26 16:30:00,
2013-02-26 09:35:00,28.0,8.4,29.97,NW,321,7.0,7.0,43,0.00,,,0.00,Wunderground v.1.15,2013-02-26 16:35:00,
2013-02-26 09:40:00,28.3,7.6,29.97,NNW,344,8.0,8.0,41,0.00,,,0.00,Wunderground v.1.15,2013-02-26 16:40:00,
2013-02-26 09:50:00,28.2,6.4,29.96,NNW,348,10.0,13.0,39,0.00,,,0.00,Wunderground v.1.15,2013-02-26 16:50:00,
2013-02-26 09:55:00,28.2,6.4,29.96,NNW,335,11.0,13.0,39,0.00,,,0.00,Wunderground v.1.15,2013-02-26 16:55:00,
2013-02-26 10:00:00,28.3,7.0,29.95,NNW,343,8.0,8.0,40,0.00,,,0.00,Wunderground v.1.15,2013-02-26 17:00:00,
2013-02-26 10:10:00,28.5,6.1,29.96,NNW,337,8.0,8.0,38,0.00,,,0.00,Wunderground v.1.15,2013-02-26 17:10:00,
2013-02-26 10:15:00,28.3,6.5,29.97,NE,39,8.0,8.0,39,0.00,,,0.00,Wunderground v.1.15,2013-02-26 17:15:00,
2013-02-26 10:20:00,28.2,6.9,29.95,NNW,340,8.0,8.0,40,0.00,,,0.00,Wunderground v.1.15,2013-02-26 17:20:00,
2013-02-26 10:30:00,28.3,7.0,29.95,NW,319,8.0,9.0,40,0.00,,,0.00,Wunderground v.1.15,2013-02-26 17:30:00,
2013-02-26 10:35:00,28.4,7.1,29.95,NNW,332,9.0,15.0,40,0.00,,,0.00,Wunderground v.1.15,2013-02-26 17:35:00,
2013-02-26 10:40:00,28.8,8.0,29.95,NNW,334,7.0,16.0,41,0.00,,,0.00,Wunderground v.1.15,2013-02-26 17:40:00,
2013-02-26 10:50:00,28.5,7.8,29.94,NNW,331,7.0,16.0,41,0.00,,,0.00,Wunderground v.1.15,2013-02-26 17:50:00,
2013-02-26 10:55:00,28.7,8.5,29.95,NW,321,7.0,16.0,42,0.00,,,0.00,Wunderground v.1.15,2013-02-26 17:55:00,
2013-02-26 11:00:00,28.5,7.2,29.94,NNW,346,7.0,7.0,40,0.00,,,0.00,Wunderground v.1.15,2013-02-26 18:00:00,
2013-02-26 11:10:00,28.8,7.5,29.93,NNW,329,7.0,8.0,40,0.00,,,0.00,Wunderground v.1.15,2013-02-26 18:10:00,
2013-02-26 11:15:00,29.0,8.2,29.93,NW,309,7.0,8.0,41,0.00,,,0.00,Wunderground v.1.15,2013-02-26 18:15:00,
2013-02-26 11:25:00,29.1,7.7,29.93,NNW,342,8.0,9.0,40,0.00,,,0.00,Wunderground v.1.15,2013-02-26 18:25:00,
2013-02-26 11:30:00,29.3,7.9,29.92,NW,317,8.0,8.0,40,0.00,,,0.00,Wunderground v.1.15,2013-02-26 18:30:00,
2013-02-26 11:35:00,28.4,7.1,29.93,North,9,8.0,20.0,40,0.00,,,0.00,Wunderground v.1.15,2013-02-26 18:35:00,
2013-02-26 11:40:00,27.6,2.2,29.92,NNW,327,10.0,10.0,33,0.00,,,0.00,Wunderground v.1.15,2013-02-26 18:40:00,
2013-02-26 11:45:00,27.9,3.1,29.92,NW,323,11.0,12.0,34,0.00,,,0.00,Wunderground v.1.15,2013-02-26 18:45:00,
2013-02-26 11:55:00,28.6,3.1,29.91,NW,325,10.0,20.0,33,0.00,,,0.00,Wunderground v.1.15,2013-02-26 18:55:00,
2013-02-26 12:00:00,29.2,4.9,29.91,NNW,337,9.0,9.0,35,0.00,,,0.00,Wunderground v.1.15,2013-02-26 19:00:00,
2013-02-26 12:10:00,28.1,4.5,29.91,NNW,345,12.0,12.0,36,0.00,,,0.00,Wunderground v.1.15,2013-02-26 19:10:00,
2013-02-26 12:15:00,28.4,4.8,29.91,NNW,335,11.0,12.0,36,0.00,,,0.00,Wunderground v.1.15,2013-02-26 19:15:00,
2013-02-26 12:20:00,28.9,3.4,29.90,NNW,331,10.0,12.0,33,0.00,,,0.00,Wunderground v.1.15,2013-02-26 19:20:00,
2013-02-26 12:25:00,29.2,2.9,29.90,NNW,332,10.0,12.0,32,0.00,,,0.00,Wunderground v.1.15,2013-02-26 19:25:00,
2013-02-26 12:35:00,29.1,0.7,29.89,NNW,333,10.0,18.0,29,0.00,,,0.00,Wunderground v.1.15,2013-02-26 19:35:00,
2013-02-26 12:40:00,29.3,0.2,29.90,NW,326,11.0,11.0,28,0.00,,,0.00,Wunderground v.1.15,2013-02-26 19:40:00,
2013-02-26 12:45:00,29.2,0.8,29.89,NW,316,10.0,18.0,29,0.00,,,0.00,Wunderground v.1.15,2013-02-26 19:45:00,
2013-02-26 12:50:00,29.1,-0.8,29.91,NNW,329,10.0,18.0,27,0.00,,,0.00,Wunderground v.1.15,2013-02-26 19:50:00,
2013-02-26 12:55:00,29.0,2.1,29.90,WNW,302,10.0,18.0,31,0.00,,,0.00,Wunderground v.1.15,2013-02-26 19:55:00,
2013-02-26 13:00:00,29.4,3.1,29.90,NW,315,10.0,10.0,32,0.00,,,0.00,Wunderground v.1.15,2013-02-26 20:00:00,
2013-02-26 13:10:00,29.2,2.3,29.90,NNE,25,12.0,12.0,31,0.00,,,0.00,Wunderground v.1.15,2013-02-26 20:10:00,
2013-02-26 13:15:00,29.4,1.7,29.90,North,355,12.0,12.0,30,0.00,,,0.00,Wunderground v.1.15,2013-02-26 20:15:00,
2013-02-26 13:35:00,27.2,2.5,29.91,NNW,346,13.0,26.0,34,0.00,,,0.00,Wunderground v.1.15,2013-02-26 20:35:00,
2013-02-26 13:40:00,27.8,3.0,29.91,NNW,327,11.0,26.0,34,0.00,,,0.00,Wunderground v.1.15,2013-02-26 20:40:00,
2013-02-26 13:50:00,27.4,3.3,29.90,NW,321,9.0,26.0,35,0.00,,,0.00,Wunderground v.1.15,2013-02-26 20:50:00,
2013-02-26 14:00:00,26.3,5.8,29.91,NW,308,11.0,11.0,41,0.00,,,0.00,Wunderground v.1.15,2013-02-26 21:00:00,
2013-02-26 14:10:00,25.5,6.1,29.92,NNW,333,9.0,10.0,43,0.00,,,0.00,Wunderground v.1.15,2013-02-26 21:10:00,
2013-02-26 14:15:00,25.4,5.5,29.92,NW,313,9.0,10.0,42,0.00,,,0.00,Wunderground v.1.15,2013-02-26 21:15:00,
2013-02-26 14:25:00,25.0,4.6,29.93,NNW,327,9.0,9.0,41,0.00,,,0.00,Wunderground v.1.15,2013-02-26 21:25:00,
2013-02-26 14:35:00,25.2,1.3,29.94,NNW,334,8.0,13.0,35,0.00,,,0.00,Wunderground v.1.15,2013-02-26 21:35:00,
2013-02-26 14:40:00,25.3,0.8,29.94,NW,325,9.0,9.0,34,0.00,,,0.00,Wunderground v.1.15,2013-02-26 21:40:00,
2013-02-26 14:45:00,25.3,1.4,29.93,WNW,299,10.0,10.0,35,0.00,,,0.00,Wunderground v.1.15,2013-02-26 21:45:00,
2013-02-26 14:50:00,25.4,1.5,29.94,NW,306,7.0,7.0,35,0.00,,,0.00,Wunderground v.1.15,2013-02-26 21:50:00,
2013-02-26 14:55:00,25.4,1.5,29.95,NNW,328,7.0,8.0,35,0.00,,,0.00,Wunderground v.1.15,2013-02-26 21:55:00,
2013-02-26 15:00:00,25.5,0.3,29.94,WSW,251,9.0,9.0,33,0.00,,,0.00,Wunderground v.1.15,2013-02-26 22:00:00,
2013-02-26 15:10:00,25.9,-0.6,29.96,NNW,328,9.0,9.0,31,0.00,,,0.00,Wunderground v.1.15,2013-02-26 22:10:00,
2013-02-26 15:15:00,25.9,0.0,29.96,NNW,336,10.0,11.0,32,0.00,,,0.00,Wunderground v.1.15,2013-02-26 22:15:00,
2013-02-26 15:25:00,26.3,0.4,29.97,NNE,24,9.0,9.0,32,0.00,,,0.00,Wunderground v.1.15,2013-02-26 22:25:00,
2013-02-26 15:30:00,26.8,0.8,29.97,NNW,328,9.0,15.0,32,0.00,,,0.00,Wunderground v.1.15,2013-02-26 22:30:00,
2013-02-26 15:40:00,27.2,0.5,29.98,NNW,334,8.0,8.0,31,0.00,,,0.00,Wunderground v.1.15,2013-02-26 22:40:00,
2013-02-26 15:45:00,27.3,0.6,29.98,WNW,282,7.0,22.0,31,0.00,,,0.00,Wunderground v.1.15,2013-02-26 22:45:00,
2013-02-26 15:55:00,26.9,-0.5,29.99,NNW,335,9.0,14.0,30,0.00,,,0.00,Wunderground v.1.15,2013-02-26 22:55:00,
2013-02-26 16:00:00,26.5,1.2,29.98,NNW,327,9.0,9.0,33,0.00,,,0.00,Wunderground v.1.15,2013-02-26 23:00:00,
2013-02-26 16:10:00,26.7,0.1,29.99,NNW,339,9.0,10.0,31,0.00,,,0.00,Wunderground v.1.15,2013-02-26 23:10:00,
2013-02-26 16:15:00,26.7,0.1,29.99,NNW,335,9.0,12.0,31,0.00,,,0.00,Wunderground v.1.15,2013-02-26 23:15:00,
2013-02-26 16:25:00,26.2,0.3,29.99,WNW,302,9.0,9.0,32,0.00,,,0.00,Wunderground v.1.15,2013-02-26 23:25:00,
2013-02-26 16:30:00,25.9,0.0,29.99,NW,312,7.0,11.0,32,0.00,,,0.00,Wunderground v.1.15,2013-02-26 23:30:00,
2013-02-26 16:35:00,25.6,0.4,30.00,North,11,8.0,24.0,33,0.00,,,0.00,Wunderground v.1.15,2013-02-26 23:35:00,
2013-02-26 16:40:00,25.4,1.5,30.00,NNW,333,8.0,8.0,35,0.00,,,0.00,Wunderground v.1.15,2013-02-26 23:40:00,
2013-02-26 16:50:00,25.0,1.8,30.00,NW,326,7.0,7.0,36,0.00,,,0.00,Wunderground v.1.15,2013-02-26 23:50:00,
2013-02-26 16:55:00,24.8,2.7,30.01,NNW,333,6.0,10.0,38,0.00,,,0.00,Wunderground v.1.15,2013-02-26 23:55:00,
2013-02-26 17:00:00,24.6,3.1,30.01,NW,322,7.0,7.0,39,0.00,,,0.00,Wunderground v.1.15,2013-02-27 00:00:00,
2013-02-26 17:10:00,24.2,1.6,30.02,NW,323,8.0,8.0,37,0.00,,,0.00,Wunderground v.1.15,2013-02-27 00:10:00,
2013-02-26 17:15:00,24.0,1.5,30.02,NW,320,9.0,13.0,37,0.00,,,0.00,Wunderground v.1.15,2013-02-27 00:15:00,
2013-02-26 17:25:00,23.9,0.8,30.03,NNW,333,8.0,11.0,36,0.00,,,0.00,Wunderground v.1.15,2013-02-27 00:25:00,
2013-02-26 17:35:00,23.8,-0.5,30.04,NW,323,7.0,19.0,34,0.00,,,0.00,Wunderground v.1.15,2013-02-27 00:35:00,
2013-02-26 17:40:00,23.6,-0.7,30.04,NW,314,9.0,9.0,34,0.00,,,0.00,Wunderground v.1.15,2013-02-27 00:40:00,
2013-02-26 17:45:00,23.5,-0.2,30.04,NNE,26,8.0,19.0,35,0.00,,,0.00,Wunderground v.1.15,2013-02-27 00:45:00,
2013-02-26 17:50:00,23.4,0.9,30.05,NNW,332,5.0,19.0,37,0.00,,,0.00,Wunderground v.1.15,2013-02-27 00:50:00,
2013-02-26 17:55:00,23.3,0.2,30.05,WNW,302,5.0,19.0,36,0.00,,,0.00,Wunderground v.1.15,2013-02-27 00:55:00,
2013-02-26 18:00:00,23.3,0.2,30.05,NNW,336,6.0,6.0,36,0.00,,,0.00,Wunderground v.1.15,2013-02-27 01:00:00,
2013-02-26 18:10:00,23.0,2.2,30.06,NNW,329,6.0,11.0,40,0.00,,,0.00,Wunderground v.1.15,2013-02-27 01:10:00,
2013-02-26 18:15:00,22.9,1.6,30.06,NW,321,6.0,11.0,39,0.00,,,0.00,Wunderground v.1.15,2013-02-27 01:15:00,
2013-02-26 18:25:00,22.8,1.5,30.07,NNW,337,7.0,10.0,39,0.00,,,0.00,Wunderground v.1.15,2013-02-27 01:25:00,
2013-02-26 18:30:00,22.7,2.0,30.07,WNW,296,6.0,6.0,40,0.00,,,0.00,Wunderground v.1.15,2013-02-27 01:30:00,
2013-02-26 18:40:00,22.6,2.9,30.08,NW,310,6.0,6.0,42,0.00,,,0.00,Wunderground v.1.15,2013-02-27 01:40:00,
2013-02-26 18:45:00,22.6,2.9,30.08,NNW,338,6.0,7.0,42,0.00,,,0.00,Wunderground v.1.15,2013-02-27 01:45:00,
2013-02-26 18:50:00,22.6,2.9,30.09,NNW,331,8.0,8.0,42,0.00,,,0.00,Wunderground v.1.15,2013-02-27 01:50:00,
2013-02-26 18:55:00,22.6,3.4,30.09,NW,321,7.0,17.0,43,0.00,,,0.00,Wunderground v.1.15,2013-02-27 01:55:00,
2013-02-26 19:00:00,22.5,5.3,30.10,NNW,330,7.0,7.0,47,0.00,,,0.00,Wunderground v.1.15,2013-02-27 02:00:00,
2013-02-26 19:10:00,22.0,7.5,30.10,NW,315,6.0,6.0,53,0.00,,,0.00,Wunderground v.1.15,2013-02-27 02:10:00,
2013-02-26 19:15:00,21.6,9.1,30.11,NW,307,6.0,7.0,58,0.00,,,0.00,Wunderground v.1.15,2013-02-27 02:15:00,
2013-02-26 19:20:00,21.2,10.2,30.12,NNW,332,7.0,13.0,62,0.00,,,0.00,Wunderground v.1.15,2013-02-27 02:20:00,
2013-02-26 19:25:00,20.7,11.1,30.12,NW,323,7.0,13.0,66,0.00,,,0.00,Wunderground v.1.15,2013-02-27 02:25:00,
2013-02-26 19:30:00,20.1,11.9,30.13,NW,307,7.0,10.0,70,0.00,,,0.00,Wunderground v.1.15,2013-02-27 02:30:00,
2013-02-26 19:40:00,19.5,11.9,30.13,NNW,342,7.0,16.0,72,0.00,,,0.00,Wunderground v.1.15,2013-02-27 02:40:00,
2013-02-26 19:50:00,19.3,12.4,30.13,NNW,331,7.0,16.0,74,0.00,,,0.00,Wunderground v.1.15,2013-02-27 02:50:00,
2013-02-26 19:55:00,19.4,12.2,30.13,NW,311,7.0,16.0,73,0.00,,,0.00,Wunderground v.1.15,2013-02-27 02:55:00,
2013-02-26 20:00:00,19.4,11.8,30.14,NNW,333,7.0,7.0,72,0.00,,,0.00,Wunderground v.1.15,2013-02-27 03:00:00,
2013-02-26 20:10:00,19.4,11.8,30.14,NW,310,6.0,6.0,72,0.00,,,0.00,Wunderground v.1.15,2013-02-27 03:10:00,
2013-02-26 20:20:00,19.0,13.0,30.15,NNW,344,4.0,5.0,77,0.00,,,0.00,Wunderground v.1.15,2013-02-27 03:20:00,
2013-02-26 20:30:00,18.5,13.6,30.16,NNW,328,6.0,10.0,81,0.00,,,0.00,Wunderground v.1.15,2013-02-27 03:30:00,
2013-02-26 20:35:00,18.2,13.9,30.16,NNW,337,6.0,15.0,83,0.00,,,0.00,Wunderground v.1.15,2013-02-27 03:35:00,
2013-02-26 20:40:00,18.0,14.0,30.16,WNW,302,6.0,6.0,84,0.00,,,0.00,Wunderground v.1.15,2013-02-27 03:40:00,
2013-02-26 20:45:00,17.9,13.9,30.16,North,355,6.0,15.0,84,0.00,,,0.00,Wunderground v.1.15,2013-02-27 03:45:00,
2013-02-26 20:55:00,17.9,14.2,30.17,NNW,334,6.0,15.0,85,0.00,,,0.00,Wunderground v.1.15,2013-02-27 03:55:00,
2013-02-26 21:00:00,17.9,14.2,30.17,NW,323,5.0,5.0,85,0.00,,,0.00,Wunderground v.1.15,2013-02-27 04:00:00,
2013-02-26 21:10:00,18.1,14.1,30.18,NW,311,4.0,7.0,84,0.00,,,0.00,Wunderground v.1.15,2013-02-27 04:10:00,
2013-02-26 21:15:00,18.2,13.9,30.18,NNW,338,4.0,8.0,83,0.00,,,0.00,Wunderground v.1.15,2013-02-27 04:15:00,
2013-02-26 21:20:00,18.3,13.7,30.18,NNW,333,4.0,4.0,82,0.00,,,0.00,Wunderground v.1.15,2013-02-27 04:20:00,
2013-02-26 21:25:00,18.4,13.5,30.18,North,355,3.0,6.0,81,0.00,,,0.00,Wunderground v.1.15,2013-02-27 04:25:00,
2013-02-26 21:30:00,18.4,13.5,30.18,NNW,338,4.0,5.0,81,0.00,,,0.00,Wunderground v.1.15,2013-02-27 04:30:00,
2013-02-26 21:35:00,18.5,13.6,30.18,NNW,331,4.0,14.0,81,0.00,,,0.00,Wunderground v.1.15,2013-02-27 04:35:00,
2013-02-26 21:45:00,18.5,13.4,30.19,NNW,330,3.0,14.0,80,0.00,,,0.00,Wunderground v.1.15,2013-02-27 04:45:00,
2013-02-26 21:50:00,18.6,13.2,30.19,NW,317,3.0,3.0,79,0.00,,,0.00,Wunderground v.1.15,2013-02-27 04:50:00,
2013-02-26 21:55:00,18.5,13.4,30.20,NNW,331,3.0,5.0,80,0.00,,,0.00,Wunderground v.1.15,2013-02-27 04:55:00,
2013-02-26 22:00:00,18.4,13.5,30.20,NW,304,3.0,4.0,81,0.00,,,0.00,Wunderground v.1.15,2013-02-27 05:00:00,
2013-02-26 22:05:00,18.1,13.8,30.20,NW,325,4.0,4.0,83,0.00,,,0.00,Wunderground v.1.15,2013-02-27 05:05:00,
2013-02-26 22:10:00,17.9,14.2,30.20,NW,324,4.0,4.0,85,0.00,,,0.00,Wunderground v.1.15,2013-02-27 05:10:00,
2013-02-26 22:15:00,17.7,14.2,30.20,NNW,330,2.0,4.0,86,0.00,,,0.00,Wunderground v.1.15,2013-02-27 05:15:00,
2013-02-26 22:25:00,17.4,13.9,30.21,NNW,336,2.0,5.0,86,0.00,,,0.00,Wunderground v.1.15,2013-02-27 05:25:00,
2013-02-26 22:30:00,17.4,14.2,30.21,NNW,340,3.0,6.0,87,0.00,,,0.00,Wunderground v.1.15,2013-02-27 05:30:00,
2013-02-26 22:40:00,17.3,14.1,30.21,NNW,329,5.0,5.0,87,0.00,,,0.00,Wunderground v.1.15,2013-02-27 05:40:00,
2013-02-26 22:45:00,17.3,14.1,30.22,NNW,335,4.0,11.0,87,0.00,,,0.00,Wunderground v.1.15,2013-02-27 05:45:00,
2013-02-26 22:50:00,17.3,14.1,30.22,NW,318,3.0,3.0,87,0.00,,,0.00,Wunderground v.1.15,2013-02-27 05:50:00,
2013-02-26 22:55:00,17.4,14.2,30.22,NNW,331,3.0,11.0,87,0.00,,,0.00,Wunderground v.1.15,2013-02-27 05:55:00,
2013-02-26 23:00:00,17.5,14.3,30.22,NNW,331,3.0,3.0,87,0.00,,,0.00,Wunderground v.1.15,2013-02-27 06:00:00,
2013-02-26 23:10:00,17.8,14.3,30.22,WNW,303,2.0,4.0,86,0.00,,,0.00,Wunderground v.1.15,2013-02-27 06:10:00,
2013-02-26 23:15:00,17.9,14.4,30.22,NW,325,3.0,4.0,86,0.00,,,0.00,Wunderground v.1.15,2013-02-27 06:15:00,
2013-02-26 23:20:00,17.9,14.2,30.22,NW,315,3.0,3.0,85,0.00,,,0.00,Wunderground v.1.15,2013-02-27 06:20:00,
2013-02-26 23:25:00,17.9,14.2,30.22,WNW,289,2.0,3.0,85,0.00,,,0.00,Wunderground v.1.15,2013-02-27 06:25:00,
2013-02-26 23:30:00,17.8,14.1,30.22,WNW,283,2.0,2.0,85,0.00,,,0.00,Wunderground v.1.15,2013-02-27 06:30:00,
2013-02-26 23:35:00,17.7,14.0,30.22,NW,312,2.0,9.0,85,0.00,,,0.00,Wunderground v.1.15,2013-02-27 06:35:00,
2013-02-26 23:40:00,17.7,13.7,30.22,NNW,330,1.0,1.0,84,0.00,,,0.00,Wunderground v.1.15,2013-02-27 06:40:00,
2013-02-26 23:50:00,17.6,13.6,30.23,NW,322,2.0,9.0,84,0.00,,,0.00,Wunderground v.1.15,2013-02-27 06:50:00,
2013-02-26 23:55:00,17.5,13.5,30.23,NW,319,2.0,9.0,84,0.00,,,0.00,Wunderground v.1.15,2013-02-27 06:55:00,